Time;durP1;ratioP1;P1;durP2;ratioP2;P2;SDS_P1;SDS_P2;PMS_P1;PMS_P2;Temp;Humidity;BMP_temperature;BMP_pressure;BME280_temperature;BME280_humidity;BME280_pressure;Samples;Min_cycle;Max_cycle;Signal;HPM_P1;HPM_P2
2022/10/09 00:02:19;;;;;;;30.83;18.77;;;;;;;;;;4992297;28;20279;-68
2022/10/09 00:04:44;;;;;;;32.63;19.10;;;;;;;;;;4992514;28;20018;-68
2022/10/09 00:07:09;;;;;;;32.03;18.23;;;;;;;;;;4990586;28;20363;-68
2022/10/09 00:09:34;;;;;;;32.27;18.33;;;;;;;;;;4992651;28;20164;-67
2022/10/09 00:12:00;;;;;;;29.30;18.27;;;;;;;;;;4992573;28;20038;-67
2022/10/09 00:14:25;;;;;;;27.73;17.60;;;;;;;;;;4991419;28;20073;-67
2022/10/09 00:16:52;;;;;;;31.30;18.43;;;;;;;;;;4992366;28;20399;-67
2022/10/09 00:19:17;;;;;;;28.90;17.30;;;;;;;;;;4989105;28;20058;-66
2022/10/09 00:21:43;;;;;;;28.83;16.33;;;;;;;;;;4992569;28;20053;-67
2022/10/09 00:24:08;;;;;;;28.80;17.53;;;;;;;;;;4989943;28;20464;-68
2022/10/09 00:26:33;;;;;;;31.23;18.13;;;;;;;;;;4991611;28;20022;-67
2022/10/09 00:28:59;;;;;;;32.43;17.17;;;;;;;;;;4992014;28;20030;-66
2022/10/09 00:31:24;;;;;;;30.67;19.10;;;;;;;;;;5004373;28;20280;-67
2022/10/09 00:33:49;;;;;;;27.57;16.40;;;;;;;;;;4991869;28;20037;-67
2022/10/09 00:36:16;;;;;;;31.20;17.03;;;;;;;;;;4991798;28;20113;-67
2022/10/09 00:38:41;;;;;;;28.50;16.80;;;;;;;;;;4990631;28;20271;-67
2022/10/09 00:41:07;;;;;;;29.70;17.65;;;;;;;;;;4991594;28;20483;-67
2022/10/09 00:43:40;;;;;;;36.95;20.73;;;;;;;;;;4990901;28;20042;-67
2022/10/09 00:46:05;;;;;;;31.55;17.77;;;;;;;;;;4989477;28;20030;-67
2022/10/09 00:48:32;;;;;;;28.02;17.85;;;;;;;;;;4991057;28;20077;-68
2022/10/09 00:50:59;;;;;;;27.20;16.38;;;;;;;;;;4990313;28;20085;-67
2022/10/09 00:53:27;;;;;;;30.17;17.75;;;;;;;;;;4991571;28;20022;-67
2022/10/09 00:55:53;;;;;;;28.52;18.00;;;;;;;;;;4991812;28;20119;-67
2022/10/09 00:58:20;;;;;;;37.70;20.42;;;;;;;;;;4990203;28;20443;-68
2022/10/09 01:00:45;;;;;;;36.45;19.63;;;;;;;;;;4991868;28;20389;-67
2022/10/09 01:03:11;;;;;;;39.53;20.73;;;;;;;;;;4994857;28;20041;-66
2022/10/09 01:05:48;;;;;;;30.13;18.77;;;;;;;;;;4991077;28;20423;-67
2022/10/09 01:08:16;;;;;;;33.58;18.10;;;;;;;;;;4990782;28;20037;-67
2022/10/09 01:10:52;;;;;;;33.45;18.38;;;;;;;;;;4991036;28;20025;-67
2022/10/09 01:13:40;;;;;;;34.10;20.23;;;;;;;;;;4990998;28;20031;-68
2022/10/09 01:16:19;;;;;;;38.78;20.15;;;;;;;;;;4989076;28;20416;-67
2022/10/09 01:18:44;;;;;;;;;;;;;;;;;;5003752;28;20022;-67
2022/10/09 01:21:09;;;;;;;35.50;18.98;;;;;;;;;;5002761;28;19917;-67
2022/10/09 01:23:37;;;;;;;31.63;20.00;;;;;;;;;;4987429;28;20126;-67
2022/10/09 01:26:06;;;;;;;37.22;18.63;;;;;;;;;;4986976;28;20022;-68
2022/10/09 01:28:32;;;;;;;34.70;18.55;;;;;;;;;;5004164;28;20088;-68
2022/10/09 01:30:58;;;;;;;28.00;18.50;;;;;;;;;;4990910;28;20105;-67
2022/10/09 01:33:23;;;;;;;30.00;18.02;;;;;;;;;;4990326;28;20026;-67
2022/10/09 01:35:49;;;;;;;28.88;17.63;;;;;;;;;;4989750;28;20034;-68
2022/10/09 01:38:15;;;;;;;30.73;17.90;;;;;;;;;;4990670;28;20061;-67
2022/10/09 01:40:41;;;;;;;38.47;22.05;;;;;;;;;;4988643;28;20108;-67
2022/10/09 01:43:06;;;;;;;39.17;24.55;;;;;;;;;;4990435;28;20026;-67
2022/10/09 01:45:38;;;;;;;37.13;22.70;;;;;;;;;;4990768;28;20019;-67
2022/10/09 01:48:04;;;;;;;36.17;21.70;;;;;;;;;;4989354;28;20113;-66
2022/10/09 01:50:32;;;;;;;33.38;22.13;;;;;;;;;;4989922;28;20177;-68
2022/10/09 01:53:05;;;;;;;38.90;23.02;;;;;;;;;;4988977;28;20101;-67
2022/10/09 01:55:39;;;;;;;33.45;21.38;;;;;;;;;;4991008;28;20027;-66
2022/10/09 01:58:10;;;;;;;37.78;22.40;;;;;;;;;;4989948;28;20080;-67
2022/10/09 02:00:38;;;;;;;30.08;20.38;;;;;;;;;;4988220;28;20022;-67
2022/10/09 02:03:06;;;;;;;28.17;18.40;;;;;;;;;;4994286;28;20023;-67
2022/10/09 02:05:32;;;;;;;29.27;17.13;;;;;;;;;;4994794;28;20018;-67
2022/10/09 02:07:58;;;;;;;26.42;17.35;;;;;;;;;;4999026;28;20487;-67
2022/10/09 02:10:23;;;;;;;29.50;17.70;;;;;;;;;;4994636;28;20042;-67
2022/10/09 02:12:52;;;;;;;27.45;17.88;;;;;;;;;;4992774;28;20387;-67
2022/10/09 02:15:17;;;;;;;27.90;17.27;;;;;;;;;;5007819;28;20046;-66
2022/10/09 02:17:44;;;;;;;34.10;17.35;;;;;;;;;;4995016;28;20026;-67
2022/10/09 02:20:30;;;;;;;30.92;16.33;;;;;;;;;;4994213;28;20026;-66
2022/10/09 02:22:56;;;;;;;27.33;16.00;;;;;;;;;;4994258;28;20066;-66
2022/10/09 02:25:22;;;;;;;25.73;15.68;;;;;;;;;;4992315;28;20081;-67
2022/10/09 02:27:47;;;;;;;22.45;14.57;;;;;;;;;;4992478;28;20030;-67
2022/10/09 02:30:13;;;;;;;25.00;16.30;;;;;;;;;;4991874;28;20054;-67
2022/10/09 02:32:39;;;;;;;21.15;14.70;;;;;;;;;;4991443;28;20286;-67
2022/10/09 02:35:04;;;;;;;41.30;15.03;;;;;;;;;;4992548;28;20101;-67
2022/10/09 02:37:29;;;;;;;24.15;15.25;;;;;;;;;;4987373;28;20260;-66
2022/10/09 02:39:55;;;;;;;23.83;14.75;;;;;;;;;;5009117;28;20073;-67
2022/10/09 02:42:21;;;;;;;25.50;15.30;;;;;;;;;;4991677;28;20365;-66
2022/10/09 02:44:46;;;;;;;26.25;14.25;;;;;;;;;;4993585;28;20287;-67
2022/10/09 02:47:11;;;;;;;23.25;14.15;;;;;;;;;;5007409;28;20030;-67
2022/10/09 02:49:36;;;;;;;23.13;15.03;;;;;;;;;;4992841;28;20472;-66
2022/10/09 02:52:02;;;;;;;26.70;14.90;;;;;;;;;;4994817;28;20054;-66
2022/10/09 02:54:27;;;;;;;28.55;13.95;;;;;;;;;;4993677;28;20279;-67
2022/10/09 02:56:52;;;;;;;25.57;13.90;;;;;;;;;;4993945;28;20037;-67
2022/10/09 02:59:17;;;;;;;25.53;14.60;;;;;;;;;;5007935;28;20026;-67
2022/10/09 03:01:43;;;;;;;20.47;13.47;;;;;;;;;;4993202;28;20034;-67
2022/10/09 03:04:08;;;;;;;22.13;14.00;;;;;;;;;;4991502;28;20125;-67
2022/10/09 03:06:33;;;;;;;21.27;13.60;;;;;;;;;;4993649;28;20026;-67
2022/10/09 03:08:58;;;;;;;18.65;12.57;;;;;;;;;;4993576;28;20340;-67
2022/10/09 03:11:24;;;;;;;21.17;14.27;;;;;;;;;;4993329;28;20030;-67
2022/10/09 03:13:50;;;;;;;19.55;13.55;;;;;;;;;;4989930;28;20033;-66
2022/10/09 03:16:17;;;;;;;21.95;13.25;;;;;;;;;;4992624;28;20534;-66
2022/10/09 03:18:42;;;;;;;18.33;13.15;;;;;;;;;;4997264;28;20388;-67
2022/10/09 03:21:09;;;;;;;23.83;13.10;;;;;;;;;;4990869;28;20035;-67
2022/10/09 03:23:34;;;;;;;21.17;13.40;;;;;;;;;;5008510;28;20027;-67
2022/10/09 03:26:10;;;;;;;25.05;14.27;;;;;;;;;;4990739;28;20543;-65
2022/10/09 03:28:36;;;;;;;23.60;13.75;;;;;;;;;;4992278;28;20532;-67
2022/10/09 03:31:02;;;;;;;23.42;13.85;;;;;;;;;;4991470;28;20121;-67
2022/10/09 03:33:27;;;;;;;21.65;12.90;;;;;;;;;;4991143;28;20022;-67
2022/10/09 03:35:52;;;;;;;22.83;13.47;;;;;;;;;;4992704;28;20030;-66
2022/10/09 03:38:17;;;;;;;22.90;13.80;;;;;;;;;;4988685;28;20926;-67
2022/10/09 03:40:43;;;;;;;21.33;13.13;;;;;;;;;;4992514;28;20488;-66
2022/10/09 03:43:09;;;;;;;21.65;14.25;;;;;;;;;;4985080;28;20035;-66
2022/10/09 03:45:34;;;;;;;23.03;13.97;;;;;;;;;;4992043;28;20026;-67
2022/10/09 03:47:59;;;;;;;23.00;13.33;;;;;;;;;;4990132;28;20260;-66
2022/10/09 03:50:24;;;;;;;27.77;14.90;;;;;;;;;;4991527;28;20362;-66
2022/10/09 03:52:50;;;;;;;35.47;15.00;;;;;;;;;;4991990;28;20278;-66
2022/10/09 03:55:15;;;;;;;20.83;14.13;;;;;;;;;;4992258;28;20375;-67
2022/10/09 03:57:40;;;;;;;21.40;13.80;;;;;;;;;;4991437;28;20280;-67
2022/10/09 04:00:06;;;;;;;25.43;13.63;;;;;;;;;;4992811;28;20260;-67
2022/10/09 04:02:32;;;;;;;22.65;13.88;;;;;;;;;;4992429;28;20321;-67
2022/10/09 04:04:57;;;;;;;21.02;13.35;;;;;;;;;;4987203;28;20391;-66
2022/10/09 04:07:22;;;;;;;22.57;13.47;;;;;;;;;;4986466;28;20030;-67
2022/10/09 04:09:47;;;;;;;22.57;13.23;;;;;;;;;;4988403;28;20042;-67
2022/10/09 04:12:13;;;;;;;19.37;12.67;;;;;;;;;;4993216;28;20307;-67
2022/10/09 04:14:38;;;;;;;26.05;14.07;;;;;;;;;;4991701;28;20298;-66
2022/10/09 04:17:03;;;;;;;23.33;12.38;;;;;;;;;;4992533;28;20518;-66
2022/10/09 04:19:29;;;;;;;20.33;12.83;;;;;;;;;;4992007;28;20026;-67
2022/10/09 04:21:54;;;;;;;20.70;12.70;;;;;;;;;;5006887;28;20092;-67
2022/10/09 04:24:19;;;;;;;19.43;13.50;;;;;;;;;;4990042;28;20369;-67
2022/10/09 04:26:44;;;;;;;22.23;13.33;;;;;;;;;;4992556;28;20101;-67
2022/10/09 04:29:10;;;;;;;25.93;13.17;;;;;;;;;;4985981;28;20894;-67
2022/10/09 04:31:35;;;;;;;23.90;12.75;;;;;;;;;;4990891;28;20507;-67
2022/10/09 04:34:00;;;;;;;18.30;13.20;;;;;;;;;;4991208;28;20022;-68
2022/10/09 04:36:25;;;;;;;20.17;13.27;;;;;;;;;;4986423;28;20026;-67
2022/10/09 04:38:51;;;;;;;25.13;13.13;;;;;;;;;;4987479;28;20026;-66
2022/10/09 04:41:17;;;;;;;26.50;13.38;;;;;;;;;;4988788;28;20026;-68
2022/10/09 04:43:42;;;;;;;22.45;13.13;;;;;;;;;;4989779;28;20018;-66
2022/10/09 04:46:09;;;;;;;23.67;13.13;;;;;;;;;;4988886;28;20030;-67
2022/10/09 04:48:38;;;;;;;21.35;13.57;;;;;;;;;;4988787;28;20085;-67
2022/10/09 04:51:05;;;;;;;21.67;12.57;;;;;;;;;;4990307;28;20080;-67
2022/10/09 04:53:30;;;;;;;23.23;13.18;;;;;;;;;;4991371;28;20384;-69
2022/10/09 04:55:55;;;;;;;22.50;13.82;;;;;;;;;;4990153;28;20026;-67
2022/10/09 04:58:21;;;;;;;22.80;13.20;;;;;;;;;;4984839;28;20072;-67
2022/10/09 05:00:46;;;;;;;18.67;12.93;;;;;;;;;;4986640;28;20519;-68
2022/10/09 05:03:12;;;;;;;26.17;12.98;;;;;;;;;;4986412;28;20291;-73
2022/10/09 05:05:37;;;;;;;21.75;12.63;;;;;;;;;;4987929;28;20026;-72
2022/10/09 05:08:03;;;;;;;19.17;12.35;;;;;;;;;;4990826;28;20029;-72
2022/10/09 05:10:29;;;;;;;20.45;12.45;;;;;;;;;;4989921;28;20462;-72
2022/10/09 05:12:54;;;;;;;25.17;12.93;;;;;;;;;;4988997;28;20504;-72
2022/10/09 05:15:19;;;;;;;22.40;13.87;;;;;;;;;;4990733;28;20149;-72
2022/10/09 05:17:45;;;;;;;26.30;13.53;;;;;;;;;;4992085;28;20384;-72
2022/10/09 05:20:10;;;;;;;49.37;32.80;;;;;;;;;;5008508;28;20279;-71
2022/10/09 05:22:35;;;;;;;25.65;15.65;;;;;;;;;;4990396;28;20964;-71
2022/10/09 05:25:01;;;;;;;19.73;13.93;;;;;;;;;;4988024;28;20392;-71
2022/10/09 05:27:26;;;;;;;21.77;13.20;;;;;;;;;;4988459;28;20362;-71
2022/10/09 05:29:51;;;;;;;26.33;13.47;;;;;;;;;;4988636;28;20779;-71
2022/10/09 05:32:16;;;;;;;26.20;13.93;;;;;;;;;;4985148;28;20360;-70
2022/10/09 05:34:41;;;;;;;27.55;13.90;;;;;;;;;;4988355;28;20073;-71
2022/10/09 05:37:07;;;;;;;25.37;16.17;;;;;;;9.97;nan;101009.41;4984941;28;20392;-70
2022/10/09 05:39:34;;;;;;;30.05;16.60;;;;;;;;;;4989392;28;20037;-70
2022/10/09 05:42:00;;;;;;;26.38;15.43;;;;;;;;;;4986321;28;20085;-70
2022/10/09 05:44:25;;;;;;;29.67;15.82;;;;;;;;;;4988433;28;20026;-70
2022/10/09 05:46:50;;;;;;;21.43;15.37;;;;;;;;;;4987972;28;20034;-70
2022/10/09 05:49:15;;;;;;;27.70;15.00;;;;;;;;;;5001368;28;20129;-70
2022/10/09 05:51:44;;;;;;;25.57;15.27;;;;;;;;;;4987801;28;20042;-70
2022/10/09 05:54:13;;;;;;;27.88;15.90;;;;;;;;;;4988237;28;20275;-69
2022/10/09 05:56:38;;;;;;;23.27;15.82;;;;;;;;;;4988628;28;20029;-70
2022/10/09 05:59:05;;;;;;;27.55;16.00;;;;;;;;;;4988444;28;20472;-68
2022/10/09 06:01:31;;;;;;;27.85;14.77;;;;;;;;;;4989606;28;20087;-70
2022/10/09 06:03:57;;;;;;;25.95;15.63;;;;;;;;;;4990220;28;20465;-69
2022/10/09 06:06:25;;;;;;;25.35;15.48;;;;;;;10.37;nan;101110.19;4989417;28;20054;-70
2022/10/09 06:08:51;;;;;;;26.42;13.77;;;;;;;;;;4990668;28;20092;-70
2022/10/09 06:11:17;;;;;;;21.70;13.07;;;;;;;;;;4990518;28;20054;-69
2022/10/09 06:13:43;;;;;;;22.65;13.15;;;;;;;;;;4988232;28;20125;-69
2022/10/09 06:16:12;;;;;;;19.55;12.38;;;;;;;;;;4987898;28;20121;-69
2022/10/09 06:18:40;;;;;;;18.17;12.32;;;;;;;;;;4987987;28;20039;-70
2022/10/09 06:21:06;;;;;;;22.17;12.77;;;;;;;;;;4988717;28;20022;-69
2022/10/09 06:23:31;;;;;;;20.42;12.82;;;;;;;;;;4987552;28;20097;-70
2022/10/09 06:25:59;;;;;;;17.55;12.27;;;;;;;;;;4986566;28;20027;-69
2022/10/09 06:28:24;;;;;;;22.60;12.50;;;;;;;;;;4989688;28;20026;-71
2022/10/09 06:30:50;;;;;;;20.23;11.98;;;;;;;;;;4989617;28;20030;-70
2022/10/09 06:33:15;;;;;;;20.73;13.55;;;;;;;10.93;nan;101171.22;4988932;28;20045;-72
2022/10/09 06:35:41;;;;;;;18.30;12.43;;;;;;;;;;4988163;28;20030;-71
2022/10/09 06:38:06;;;;;;;22.83;12.30;;;;;;;;;;4989194;28;20076;-71
2022/10/09 06:40:34;;;;;;;20.05;12.23;;;;;;;;;;4986502;28;20662;-71
2022/10/09 06:42:59;;;;;;;19.27;12.40;;;;;;;;;;4987517;28;20090;-72
2022/10/09 06:45:24;;;;;;;23.50;12.45;;;;;;;;;;4988258;28;20473;-72
2022/10/09 06:47:50;;;;;;;19.02;12.30;;;;;;;;;;4988596;28;20038;-71
2022/10/09 06:50:15;;;;;;;20.53;12.20;;;;;;;;;;4992794;28;20117;-72
2022/10/09 06:52:41;;;;;;;18.70;12.32;;;;;;;;;;4990874;28;20109;-71
2022/10/09 06:55:06;;;;;;;20.87;13.40;;;;;;;;;;4992589;28;20026;-72
2022/10/09 06:57:31;;;;;;;19.02;11.75;;;;;;;;;;4985569;28;20283;-71
2022/10/09 06:59:56;;;;;;;20.40;13.07;;;;;;;;;;4990746;28;20038;-71
2022/10/09 07:02:22;;;;;;;26.47;12.73;;;;;;;;;;4991913;28;20030;-71
2022/10/09 07:04:47;;;;;;;22.40;12.97;;;;;;;;;;4993767;28;20033;-71
2022/10/09 07:07:12;;;;;;;22.67;14.13;;;;;;;;;;4990109;28;20126;-71
2022/10/09 07:09:37;;;;;;;24.07;14.07;;;;;;;;;;4993284;28;20284;-70
2022/10/09 07:12:03;;;;;;;28.03;14.07;;;;;;;;;;4992060;28;20030;-72
2022/10/09 07:14:28;;;;;;;27.75;14.43;;;;;;;;;;5005830;28;20065;-71
2022/10/09 07:16:53;;;;;;;24.98;14.05;;;;;;;;;;4992180;28;20034;-71
2022/10/09 07:19:19;;;;;;;22.38;13.70;;;;;;;;;;4992705;28;20073;-71
2022/10/09 07:21:45;;;;;;;18.63;13.23;;;;;;;;;;4989722;28;20038;-72
2022/10/09 07:24:10;;;;;;;22.48;13.63;;;;;;;;;;4992687;28;20129;-71
2022/10/09 07:26:37;;;;;;;26.75;14.07;;;;;;;;;;4989975;28;20041;-71
2022/10/09 07:29:03;;;;;;;19.38;13.48;;;;;;;;;;5003566;28;20037;-70
2022/10/09 07:31:28;;;;;;;25.42;13.98;;;;;;;;;;4987787;28;20668;-71
2022/10/09 07:33:55;;;;;;;20.43;12.23;;;;;;;;;;5004954;28;20054;-71
2022/10/09 07:36:21;;;;;;;22.40;12.88;;;;;;;;;;4992349;28;20037;-71
2022/10/09 07:38:53;;;;;;;25.90;12.77;;;;;;;;;;4992146;28;20026;-72
2022/10/09 07:41:19;;;;;;;19.08;12.68;;;;;;;;;;4990505;28;20032;-72
2022/10/09 07:43:44;;;;;;;20.10;12.48;;;;;;;;;;4987894;28;20026;-71
2022/10/09 07:46:11;;;;;;;20.52;13.32;;;;;;;;;;4991128;28;20051;-71
2022/10/09 07:48:36;;;;;;;21.90;13.02;;;;;;;;;;4992686;28;20021;-70
2022/10/09 07:51:08;;;;;;;18.37;12.63;;;;;;;;;;4986463;28;20023;-71
2022/10/09 07:53:34;;;;;;;19.92;11.30;;;;;;;;;;4989916;28;20037;-70
2022/10/09 07:55:59;;;;;;;21.00;12.10;;;;;;;;;;4990668;28;20030;-70
2022/10/09 07:58:24;;;;;;;19.53;12.43;;;;;;;;;;4992219;28;20022;-71
2022/10/09 08:00:49;;;;;;;18.97;13.30;;;;;;;;;;4990643;28;20097;-71
2022/10/09 08:03:15;;;;;;;18.15;12.68;;;;;;;;;;5005864;28;20292;-71
2022/10/09 08:05:40;;;;;;;25.23;13.80;;;;;;;;;;4991386;28;20436;-70
2022/10/09 08:08:05;;;;;;;20.73;12.30;;;;;;;;;;4992250;28;20117;-71
2022/10/09 08:10:31;;;;;;;19.33;12.73;;;;;;;;;;4992065;28;20029;-71
2022/10/09 08:12:56;;;;;;;20.48;13.02;;;;;;;;;;4992417;28;20757;-70
2022/10/09 08:15:22;;;;;;;16.80;11.93;;;;;;;;;;5004985;28;20050;-70
2022/10/09 08:17:47;;;;;;;21.13;12.07;;;;;;;;;;4992545;28;20303;-71
2022/10/09 08:20:12;;;;;;;22.10;12.32;;;;;;;;;;4991035;28;20029;-70
2022/10/09 08:22:37;;;;;;;20.57;12.93;;;;;;;;;;4995757;28;20024;-71
2022/10/09 08:25:03;;;;;;;35.83;16.02;;;;;;;;;;4991763;28;20283;-71
2022/10/09 08:27:28;;;;;;;29.58;13.02;;;;;;;;;;4990797;28;20038;-71
2022/10/09 08:29:53;;;;;;;17.30;12.13;;;;;;;;;;4991990;28;20038;-69
2022/10/09 08:32:19;;;;;;;32.27;15.97;;;;;;;;;;5006001;28;20037;-69
2022/10/09 08:34:45;;;;;;;20.43;12.70;;;;;;;;;;4990714;28;20030;-69
2022/10/09 08:37:10;;;;;;;27.85;14.48;;;;;;;;;;4990439;28;20089;-69
2022/10/09 08:39:35;;;;;;;21.80;13.60;;;;;;;;;;4990735;28;20022;-69
2022/10/09 08:42:02;;;;;;;26.37;12.53;;;;;;;;;;4991447;28;20288;-69
2022/10/09 08:44:27;;;;;;;17.98;11.80;;;;;;;;;;4992253;28;20030;-69
2022/10/09 08:46:52;;;;;;;19.60;12.30;;;;;;;;;;4991235;28;20018;-69
2022/10/09 08:49:38;;;;;;;18.63;11.88;;;;;;;;;;4987051;28;20034;-69
2022/10/09 08:52:18;;;;;;;15.48;10.30;;;;;;;;;;4980369;28;20085;-69
2022/10/09 08:54:43;;;;;;;19.98;11.00;;;;;;;;;;4986697;28;20488;-69
2022/10/09 08:57:11;;;;;;;16.63;9.48;;;;;;;;;;4989946;28;20042;-68
2022/10/09 08:59:36;;;;;;;16.60;10.30;;;;;;;;;;5003443;28;20022;-69
2022/10/09 09:02:01;;;;;;;19.13;10.13;;;;;;;;;;4991496;28;20028;-70
2022/10/09 09:04:37;;;;;;;16.00;10.30;;;;;;;;;;4993433;28;20030;-70
2022/10/09 09:07:08;;;;;;;17.58;9.10;;;;;;;;;;5002180;28;20041;-69
2022/10/09 09:09:39;;;;;;;18.50;9.70;;;;;;;;;;4986912;28;20030;-69
2022/10/09 09:12:20;;;;;;;14.38;9.52;;;;;;;;;;4986521;28;20391;-69
2022/10/09 09:15:03;;;;;;;17.80;9.50;;;;;;;;;;4988188;28;20645;-69
2022/10/09 09:17:29;;;;;;;15.55;9.07;;;;;;;;;;4986495;28;20045;-69
2022/10/09 09:20:00;;;;;;;17.20;9.13;;;;;;;;;;4991283;28;20022;-69
2022/10/09 09:22:26;;;;;;;13.95;9.35;;;;;;;;;;4984674;28;20436;-68
2022/10/09 09:24:53;;;;;;;15.93;9.40;;;;;;;;;;5004926;28;20105;-68
2022/10/09 09:27:19;;;;;;;16.35;8.82;;;;;;;;;;4989971;28;20030;-68
2022/10/09 09:29:53;;;;;;;14.18;8.95;;;;;;;;;;5004939;28;20552;-68
2022/10/09 09:32:20;;;;;;;12.43;9.18;;;;;;;;;;4991280;28;20037;-68
2022/10/09 09:34:45;;;;;;;16.02;9.27;;;;;;;;;;4988381;28;20505;-68
2022/10/09 09:37:11;;;;;;;15.05;9.02;;;;;;;;;;4990057;28;20034;-68
2022/10/09 09:39:37;;;;;;;17.05;9.15;;;;;;;15.93;nan;101225.34;4988093;28;20026;-68
2022/10/09 09:42:05;;;;;;;13.35;8.95;;;;;;;;;;4986573;28;20030;-68
2022/10/09 09:44:32;;;;;;;13.40;8.25;;;;;;;;;;4988148;28;20022;-68
2022/10/09 09:46:57;;;;;;;12.63;8.25;;;;;;;;;;4990652;28;20092;-68
2022/10/09 09:49:26;;;;;;;13.90;8.02;;;;;;;;;;4989870;28;20902;-68
2022/10/09 09:51:52;;;;;;;13.07;8.43;;;;;;;;;;4993414;28;20523;-68
2022/10/09 09:54:21;;;;;;;10.65;8.05;;;;;;;;;;4989822;28;20038;-68
2022/10/09 09:56:47;;;;;;;15.57;8.23;;;;;;;;;;4990302;28;20030;-68
2022/10/09 09:59:25;;;;;;;12.18;8.23;;;;;;;;;;4988977;28;20038;-68
2022/10/09 10:01:59;;;;;;;14.10;7.78;;;;;;;16.38;nan;101211.19;4989390;28;20054;-68
2022/10/09 10:04:27;;;;;;;12.80;7.85;;;;;;;16.41;nan;101180.66;4987720;28;20026;-69
2022/10/09 10:06:52;;;;;;;16.08;8.48;;;;;;;;;;4989565;28;20114;-68
2022/10/09 10:09:18;;;;;;;16.65;8.70;;;;;;;;;;4988321;28;20121;-72
2022/10/09 10:11:47;;;;;;;13.20;8.00;;;;;;;16.85;nan;101209.97;4990372;28;20100;-71
2022/10/09 10:14:14;;;;;;;18.85;8.10;;;;;;;;;;5004976;28;20050;-71
2022/10/09 10:16:39;;;;;;;11.48;7.65;;;;;;;;;;4986951;28;20034;-71
2022/10/09 10:19:05;;;;;;;11.95;7.53;;;;;;;;;;4988981;28;20026;-71
2022/10/09 10:21:40;;;;;;;10.32;7.47;;;;;;;;;;4990505;28;20484;-70
2022/10/09 10:24:13;;;;;;;12.90;7.50;;;;;;;17.58;nan;101202.56;4993475;28;20041;-70
2022/10/09 10:26:45;;;;;;;10.77;7.57;;;;;;;;;;4991680;28;20665;-70
2022/10/09 10:29:14;;;;;;;11.90;7.50;;;;;;;;;;4993472;28;20113;-71
2022/10/09 10:31:39;;;;;;;11.07;7.00;;;;;;;;;;5007237;28;20022;-71
2022/10/09 10:34:07;;;;;;;9.10;6.57;;;;;;;;;;4992041;28;20041;-68
2022/10/09 10:36:32;;;;;;;10.02;6.20;;;;;;;;;;4994689;28;20113;-71
2022/10/09 10:39:08;;;;;;;9.00;6.23;;;;;;;18.18;nan;101142.03;4994861;28;20300;-71
2022/10/09 10:41:36;;;;;;;9.13;6.18;;;;;;;;;;4993421;28;20184;-68
2022/10/09 10:44:28;;;;;;;9.90;6.35;;;;;;;;;;4994242;28;20027;-68
2022/10/09 10:47:02;;;;;;;11.25;5.90;;;;;;;;;;4986267;28;20046;-69
2022/10/09 10:49:28;;;;;;;12.10;6.65;;;;;;;;;;4990191;28;20026;-68
2022/10/09 10:52:12;;;;;;;12.27;6.20;;;;;;;;;;4994787;28;20029;-68
2022/10/09 10:54:46;;;;;;;8.80;6.30;;;;;;;;;;4991860;28;20025;-68
2022/10/09 10:57:12;;;;;;;9.07;6.70;;;;;;;;;;4987202;28;20042;-68
2022/10/09 10:59:46;;;;;;;9.13;6.03;;;;;;;18.47;nan;101173.66;4991296;28;20106;-68
2022/10/09 11:02:36;;;;;;;10.00;6.32;;;;;;;18.56;nan;101147.31;4988482;28;20049;-68
2022/10/09 11:05:21;;;;;;;10.27;5.97;;;;;;;18.69;nan;101128.16;4992325;28;20141;-68
2022/10/09 11:08:08;;;;;;;9.45;6.55;;;;;;;18.80;nan;101153.03;4990887;28;20046;-68
2022/10/09 11:10:54;;;;;;;11.32;7.50;;;;;;;18.90;nan;101148.53;4991572;28;20081;-69
2022/10/09 11:13:31;;;;;;;10.80;6.60;;;;;;;;;;4990788;28;20038;-69
2022/10/09 11:16:04;;;;;;;12.20;6.70;;;;;;;19.12;nan;101140.31;4989419;28;20077;-69
2022/10/09 11:18:48;;;;;;;12.70;6.85;;;;;;;19.08;nan;101139.25;4994733;28;20029;-70
2022/10/09 11:21:41;;;;;;;10.82;6.90;;;;;;;;;;4990199;28;20028;-69
2022/10/09 11:24:41;;;;;;;11.32;5.40;;;;;;;19.10;nan;101142.44;5008589;28;20065;-69
2022/10/09 11:27:09;;;;;;;6.90;5.13;;;;;;;;;;4990636;28;20034;-69
2022/10/09 11:29:43;;;;;;;9.77;5.13;;;;;;;19.11;nan;101137.91;5004697;28;20149;-69
2022/10/09 11:32:12;;;;;;;9.07;5.25;;;;;;;19.17;nan;101131.50;4991401;28;20080;-69
2022/10/09 11:34:45;;;;;;;10.02;5.63;;;;;;;19.23;nan;101127.78;4990264;28;20030;-69
2022/10/09 11:37:33;;;;;;;7.40;5.50;;;;;;;;;;4992101;28;20045;-69
2022/10/09 11:40:03;;;;;;;7.45;5.80;;;;;;;19.29;nan;101133.94;4989761;28;20026;-69
2022/10/09 11:42:29;;;;;;;7.18;5.60;;;;;;;19.34;nan;101128.59;4987030;28;20125;-69
2022/10/09 11:44:57;;;;;;;7.45;5.53;;;;;;;19.41;nan;101123.78;4990870;28;20113;-69
2022/10/09 11:47:23;;;;;;;8.25;5.53;;;;;;;19.46;nan;101120.31;4991354;28;20137;-68
2022/10/09 11:49:51;;;;;;;13.38;5.93;;;;;;;19.48;nan;101136.88;4990365;28;20536;-69
2022/10/09 11:52:25;;;;;;;8.40;5.85;;;;;;;;;;4990835;28;20030;-69
2022/10/09 11:54:50;;;;;;;10.15;5.18;;;;;;;19.56;nan;101165.75;4991836;28;20109;-69
2022/10/09 11:57:26;;;;;;;8.48;5.45;;;;;;;19.65;nan;101116.06;4989801;28;20112;-68
2022/10/09 12:00:06;;;;;;;6.38;4.93;;;;;;;19.74;nan;101121.69;4989701;28;20030;-69
2022/10/09 12:02:31;;;;;;;;;;;;;;;19.77;nan;101129.97;5005643;28;20117;-68
2022/10/09 12:04:56;;;;;;;9.32;4.60;;;;;;;19.72;nan;101111.25;5005860;28;20004;-70
2022/10/09 12:07:25;;;;;;;8.52;5.35;;;;;;;19.85;nan;101119.81;4989656;28;20084;-69
2022/10/09 12:09:57;;;;;;;7.87;4.77;;;;;;;19.91;nan;101073.28;4991120;28;20019;-72
2022/10/09 12:12:23;;;;;;;7.15;4.80;;;;;;;20.09;nan;101099.47;4991715;28;20029;-70
2022/10/09 12:14:50;;;;;;;6.03;4.70;;;;;;;20.18;nan;101103.19;4987837;28;20050;-70
2022/10/09 12:17:33;;;;;;;6.75;4.93;;;;;;;20.26;nan;101101.03;4987582;28;20022;-68
2022/10/09 12:20:14;;;;;;;5.85;4.60;;;;;;;20.26;nan;101119.75;4989918;28;20014;-68
2022/10/09 12:22:44;;;;;;;7.22;4.80;;;;;;;20.34;nan;101097.78;4990228;28;20026;-69
2022/10/09 12:25:22;;;;;;;6.20;4.90;;;;;;;20.34;nan;101092.44;4985821;28;20135;-70
2022/10/09 12:27:53;;;;;;;9.55;4.95;;;;;;;20.39;nan;101092.41;4988870;28;20033;-69
2022/10/09 12:30:21;;;;;;;11.05;5.55;;;;;;;20.29;nan;101130.69;4991346;28;20101;-69
2022/10/09 12:32:55;;;;;;;11.43;5.25;;;;;;;20.33;nan;101053.38;4993122;28;20050;-68
2022/10/09 12:35:27;;;;;;;9.82;5.07;;;;;;;20.42;nan;101099.88;4991001;28;20396;-69
2022/10/09 12:37:53;;;;;;;9.50;4.88;;;;;;;;;;4988936;28;20456;-70
2022/10/09 12:40:30;;;;;;;10.87;4.90;;;;;;;20.33;nan;101056.84;4987518;28;20022;-69
2022/10/09 12:42:57;;;;;;;8.15;4.68;;;;;;;20.48;nan;101103.34;5003906;28;20028;-69
2022/10/09 12:45:24;;;;;;;5.22;4.15;;;;;;;;;;4986698;28;20026;-69
2022/10/09 12:47:51;;;;;;;10.02;4.82;;;;;;;20.43;nan;101101.50;4990111;28;20045;-71
2022/10/09 12:50:29;;;;;;;6.72;4.40;;;;;;;20.41;nan;101090.25;4992746;28;20026;-71
2022/10/09 12:53:03;;;;;;;6.68;4.25;;;;;;;20.40;nan;101064.59;4989531;28;20030;-71
2022/10/09 12:55:39;;;;;;;8.68;4.68;;;;;;;20.51;nan;101116.16;4985722;28;20085;-71
2022/10/09 12:58:12;;;;;;;9.60;4.50;;;;;;;20.58;nan;101112.16;5006241;28;20026;-70
2022/10/09 13:00:39;;;;;;;9.93;4.88;;;;;;;20.64;nan;101155.75;5003394;28;20738;-69
2022/10/09 13:03:04;;;;;;;6.65;4.57;;;;;;;20.66;nan;101101.94;5007289;28;20483;-69
2022/10/09 13:05:38;;;;;;;6.88;4.65;;;;;;;20.63;nan;101114.00;4985988;28;20026;-70
2022/10/09 13:08:04;;;;;;;6.35;4.80;;;;;;;20.58;nan;101093.41;5002941;28;20037;-69
2022/10/09 13:10:30;;;;;;;6.75;4.22;;;;;;;20.57;nan;101096.38;4986842;28;20031;-69
2022/10/09 13:12:57;;;;;;;5.20;4.28;;;;;;;20.56;nan;101068.81;4992048;28;20034;-69
2022/10/09 13:15:35;;;;;;;11.75;4.32;;;;;;;20.50;nan;101020.94;4986171;28;20038;-69
2022/10/09 13:18:12;;;;;;;5.05;4.32;;;;;;;20.66;nan;101094.72;4990920;28;20034;-70
2022/10/09 13:20:37;;;;;;;7.72;4.55;;;;;;;20.67;nan;101087.50;4991723;28;20034;-70
2022/10/09 13:23:05;;;;;;;5.05;4.20;;;;;;;20.62;nan;101093.69;4989913;28;20499;-70
2022/10/09 13:25:38;;;;;;;9.00;4.80;;;;;;;20.58;nan;101084.59;4989692;28;20436;-66
2022/10/09 13:28:04;;;;;;;9.65;4.72;;;;;;;20.51;nan;101078.72;4990027;28;20026;-69
2022/10/09 13:30:29;;;;;;;8.07;4.50;;;;;;;20.62;nan;101157.13;4989296;28;20034;-71
2022/10/09 13:32:55;;;;;;;8.65;4.45;;;;;;;20.74;nan;101096.03;4988593;28;20026;-70
2022/10/09 13:35:21;;;;;;;10.38;5.03;;;;;;;20.80;nan;101092.25;4990902;28;20069;-72
2022/10/09 13:37:46;;;;;;;8.75;4.85;;;;;;;20.80;nan;101079.66;4992022;28;20061;-69
2022/10/09 13:40:19;;;;;;;8.52;4.85;;;;;;;20.76;nan;101083.19;5002977;28;20440;-69
2022/10/09 13:42:53;;;;;;;5.93;4.88;;;;;;;20.70;nan;101077.03;4988926;28;20029;-70
2022/10/09 13:45:19;;;;;;;9.50;4.82;;;;;;;20.66;nan;101134.84;4985523;28;20062;-70
2022/10/09 13:47:44;;;;;;;6.32;4.20;;;;;;;20.75;nan;101062.81;5005376;28;20061;-69